sensor_id;sensor_type;location;lat;lon;timestamp;temperature;humidity
79140;HTU21D;68546;59.142;37.948;2023-10-08T00:02:27;4.52;76.71
79140;HTU21D;68546;59.142;37.948;2023-10-08T00:04:53;4.50;76.77
79140;HTU21D;68546;59.142;37.948;2023-10-08T00:07:23;4.47;76.67
79140;HTU21D;68546;59.142;37.948;2023-10-08T00:09:51;4.44;76.47
79140;HTU21D;68546;59.142;37.948;2023-10-08T00:12:19;4.41;76.64
79140;HTU21D;68546;59.142;37.948;2023-10-08T00:14:46;4.41;76.72
79140;HTU21D;68546;59.142;37.948;2023-10-08T00:17:16;4.36;76.59
79140;HTU21D;68546;59.142;37.948;2023-10-08T00:19:46;4.33;76.50
79140;HTU21D;68546;59.142;37.948;2023-10-08T00:22:19;4.28;76.55
79140;HTU21D;68546;59.142;37.948;2023-10-08T00:24:45;4.26;76.76
79140;HTU21D;68546;59.142;37.948;2023-10-08T00:27:12;4.23;76.92
79140;HTU21D;68546;59.142;37.948;2023-10-08T00:29:43;4.23;76.93
79140;HTU21D;68546;59.142;37.948;2023-10-08T00:32:10;4.20;77.00
79140;HTU21D;68546;59.142;37.948;2023-10-08T00:34:39;4.18;77.24
79140;HTU21D;68546;59.142;37.948;2023-10-08T00:37:12;4.18;77.25
79140;HTU21D;68546;59.142;37.948;2023-10-08T00:39:41;4.16;77.40
79140;HTU21D;68546;59.142;37.948;2023-10-08T00:42:08;4.16;77.67
79140;HTU21D;68546;59.142;37.948;2023-10-08T00:44:35;4.17;77.79
79140;HTU21D;68546;59.142;37.948;2023-10-08T00:47:23;4.18;77.85
79140;HTU21D;68546;59.142;37.948;2023-10-08T00:49:52;4.17;77.78
79140;HTU21D;68546;59.142;37.948;2023-10-08T00:52:35;4.18;77.81
79140;HTU21D;68546;59.142;37.948;2023-10-08T00:55:34;4.19;77.80
79140;HTU21D;68546;59.142;37.948;2023-10-08T00:58:02;4.18;77.94
79140;HTU21D;68546;59.142;37.948;2023-10-08T01:00:37;4.19;78.11
79140;HTU21D;68546;59.142;37.948;2023-10-08T01:03:07;4.20;78.14
79140;HTU21D;68546;59.142;37.948;2023-10-08T01:05:41;4.22;78.25
79140;HTU21D;68546;59.142;37.948;2023-10-08T01:08:09;4.22;78.26
79140;HTU21D;68546;59.142;37.948;2023-10-08T01:10:40;4.23;78.16
79140;HTU21D;68546;59.142;37.948;2023-10-08T01:13:10;4.23;78.17
79140;HTU21D;68546;59.142;37.948;2023-10-08T01:15:46;4.24;78.33
79140;HTU21D;68546;59.142;37.948;2023-10-08T01:18:17;4.24;78.53
79140;HTU21D;68546;59.142;37.948;2023-10-08T01:20:54;4.27;78.56
79140;HTU21D;68546;59.142;37.948;2023-10-08T01:23:22;4.28;78.45
79140;HTU21D;68546;59.142;37.948;2023-10-08T01:25:52;4.29;78.40
79140;HTU21D;68546;59.142;37.948;2023-10-08T01:28:37;4.28;78.29
79140;HTU21D;68546;59.142;37.948;2023-10-08T01:31:03;4.28;78.36
79140;HTU21D;68546;59.142;37.948;2023-10-08T01:33:30;4.30;78.28
79140;HTU21D;68546;59.142;37.948;2023-10-08T01:36:04;4.29;78.43
79140;HTU21D;68546;59.142;37.948;2023-10-08T01:38:32;4.28;78.34
79140;HTU21D;68546;59.142;37.948;2023-10-08T01:41:01;4.27;78.30
79140;HTU21D;68546;59.142;37.948;2023-10-08T01:43:48;4.27;78.30
79140;HTU21D;68546;59.142;37.948;2023-10-08T01:46:15;4.28;78.33
79140;HTU21D;68546;59.142;37.948;2023-10-08T01:48:42;4.28;78.27
79140;HTU21D;68546;59.142;37.948;2023-10-08T01:51:10;4.27;78.01
79140;HTU21D;68546;59.142;37.948;2023-10-08T01:53:52;4.23;77.81
79140;HTU21D;68546;59.142;37.948;2023-10-08T01:56:20;4.20;77.67
79140;HTU21D;68546;59.142;37.948;2023-10-08T01:58:46;4.17;77.66
79140;HTU21D;68546;59.142;37.948;2023-10-08T02:01:12;4.15;77.82
79140;HTU21D;68546;59.142;37.948;2023-10-08T02:03:39;4.12;77.82
79140;HTU21D;68546;59.142;37.948;2023-10-08T02:06:07;4.12;77.90
79140;HTU21D;68546;59.142;37.948;2023-10-08T02:08:35;4.10;77.79
79140;HTU21D;68546;59.142;37.948;2023-10-08T02:11:02;4.08;77.95
79140;HTU21D;68546;59.142;37.948;2023-10-08T02:13:28;4.08;78.03
79140;HTU21D;68546;59.142;37.948;2023-10-08T02:15:56;4.07;78.14
79140;HTU21D;68546;59.142;37.948;2023-10-08T02:18:24;4.07;78.12
79140;HTU21D;68546;59.142;37.948;2023-10-08T02:20:51;4.06;78.14
79140;HTU21D;68546;59.142;37.948;2023-10-08T02:23:18;4.05;78.18
79140;HTU21D;68546;59.142;37.948;2023-10-08T02:25:45;4.06;78.40
79140;HTU21D;68546;59.142;37.948;2023-10-08T02:28:11;4.07;78.36
79140;HTU21D;68546;59.142;37.948;2023-10-08T02:30:46;4.04;78.27
79140;HTU21D;68546;59.142;37.948;2023-10-08T02:33:13;4.04;78.35
79140;HTU21D;68546;59.142;37.948;2023-10-08T02:35:43;4.04;78.37
79140;HTU21D;68546;59.142;37.948;2023-10-08T02:38:16;4.05;78.57
79140;HTU21D;68546;59.142;37.948;2023-10-08T02:40:42;4.05;78.82
79140;HTU21D;68546;59.142;37.948;2023-10-08T02:43:15;4.07;78.92
79140;HTU21D;68546;59.142;37.948;2023-10-08T02:45:43;4.09;78.88
79140;HTU21D;68546;59.142;37.948;2023-10-08T02:48:13;4.09;78.79
79140;HTU21D;68546;59.142;37.948;2023-10-08T02:50:40;4.09;78.79
79140;HTU21D;68546;59.142;37.948;2023-10-08T02:53:07;4.08;78.93
79140;HTU21D;68546;59.142;37.948;2023-10-08T02:55:38;4.10;78.87
79140;HTU21D;68546;59.142;37.948;2023-10-08T02:58:10;4.10;78.82
79140;HTU21D;68546;59.142;37.948;2023-10-08T03:00:47;4.12;78.79
79140;HTU21D;68546;59.142;37.948;2023-10-08T03:03:16;4.10;78.81
79140;HTU21D;68546;59.142;37.948;2023-10-08T03:05:48;4.10;78.88
79140;HTU21D;68546;59.142;37.948;2023-10-08T03:08:16;4.10;78.97
79140;HTU21D;68546;59.142;37.948;2023-10-08T03:10:53;4.10;79.01
79140;HTU21D;68546;59.142;37.948;2023-10-08T03:13:28;4.10;78.83
79140;HTU21D;68546;59.142;37.948;2023-10-08T03:15:55;4.09;78.84
79140;HTU21D;68546;59.142;37.948;2023-10-08T03:18:41;4.10;78.88
79140;HTU21D;68546;59.142;37.948;2023-10-08T03:21:11;4.09;78.95
79140;HTU21D;68546;59.142;37.948;2023-10-08T03:23:47;4.09;78.98
79140;HTU21D;68546;59.142;37.948;2023-10-08T03:26:14;4.09;78.97
79140;HTU21D;68546;59.142;37.948;2023-10-08T03:29:01;4.08;78.56
79140;HTU21D;68546;59.142;37.948;2023-10-08T03:31:32;4.06;78.53
79140;HTU21D;68546;59.142;37.948;2023-10-08T03:34:20;4.04;78.87
79140;HTU21D;68546;59.142;37.948;2023-10-08T03:36:47;4.05;79.07
79140;HTU21D;68546;59.142;37.948;2023-10-08T03:39:16;4.05;79.27
79140;HTU21D;68546;59.142;37.948;2023-10-08T03:41:45;4.06;79.11
79140;HTU21D;68546;59.142;37.948;2023-10-08T03:44:23;4.05;78.98
79140;HTU21D;68546;59.142;37.948;2023-10-08T03:46:54;4.05;79.02
79140;HTU21D;68546;59.142;37.948;2023-10-08T03:49:23;4.05;79.03
79140;HTU21D;68546;59.142;37.948;2023-10-08T03:51:50;4.04;78.68
79140;HTU21D;68546;59.142;37.948;2023-10-08T03:54:20;4.01;78.48
79140;HTU21D;68546;59.142;37.948;2023-10-08T03:56:56;3.98;78.53
79140;HTU21D;68546;59.142;37.948;2023-10-08T03:59:23;3.98;78.76
79140;HTU21D;68546;59.142;37.948;2023-10-08T04:01:59;3.98;78.87
79140;HTU21D;68546;59.142;37.948;2023-10-08T04:04:46;3.98;79.02
79140;HTU21D;68546;59.142;37.948;2023-10-08T04:07:21;3.97;78.94
79140;HTU21D;68546;59.142;37.948;2023-10-08T04:09:55;3.95;79.01
79140;HTU21D;68546;59.142;37.948;2023-10-08T04:12:42;3.97;79.04
79140;HTU21D;68546;59.142;37.948;2023-10-08T04:15:14;3.95;79.01
79140;HTU21D;68546;59.142;37.948;2023-10-08T04:17:42;3.95;79.13
79140;HTU21D;68546;59.142;37.948;2023-10-08T04:20:17;3.95;79.12
79140;HTU21D;68546;59.142;37.948;2023-10-08T04:23:00;3.95;79.22
79140;HTU21D;68546;59.142;37.948;2023-10-08T04:25:26;3.95;79.29
79140;HTU21D;68546;59.142;37.948;2023-10-08T04:28:00;3.95;79.46
79140;HTU21D;68546;59.142;37.948;2023-10-08T04:30:33;3.98;79.56
79140;HTU21D;68546;59.142;37.948;2023-10-08T04:33:03;3.97;79.69
79140;HTU21D;68546;59.142;37.948;2023-10-08T04:35:37;3.98;79.57
79140;HTU21D;68546;59.142;37.948;2023-10-08T04:38:14;3.98;79.58
79140;HTU21D;68546;59.142;37.948;2023-10-08T04:40:43;3.99;79.65
79140;HTU21D;68546;59.142;37.948;2023-10-08T04:43:18;4.00;79.86
79140;HTU21D;68546;59.142;37.948;2023-10-08T04:45:52;4.01;79.82
79140;HTU21D;68546;59.142;37.948;2023-10-08T04:48:18;4.01;79.66
79140;HTU21D;68546;59.142;37.948;2023-10-08T04:50:51;4.02;79.79
79140;HTU21D;68546;59.142;37.948;2023-10-08T04:53:28;4.02;80.00
79140;HTU21D;68546;59.142;37.948;2023-10-08T04:55:59;4.04;80.05
79140;HTU21D;68546;59.142;37.948;2023-10-08T04:58:32;4.06;80.07
79140;HTU21D;68546;59.142;37.948;2023-10-08T05:01:07;4.08;80.24
79140;HTU21D;68546;59.142;37.948;2023-10-08T05:03:56;4.08;80.29
79140;HTU21D;68546;59.142;37.948;2023-10-08T05:06:27;4.12;80.37
79140;HTU21D;68546;59.142;37.948;2023-10-08T05:09:13;4.14;80.44
79140;HTU21D;68546;59.142;37.948;2023-10-08T05:11:50;4.17;80.30
79140;HTU21D;68546;59.142;37.948;2023-10-08T05:14:21;4.16;79.95
79140;HTU21D;68546;59.142;37.948;2023-10-08T05:17:08;4.17;80.02
79140;HTU21D;68546;59.142;37.948;2023-10-08T05:19:49;4.17;80.10
79140;HTU21D;68546;59.142;37.948;2023-10-08T05:22:33;4.19;80.07
79140;HTU21D;68546;59.142;37.948;2023-10-08T05:25:10;4.20;80.17
79140;HTU21D;68546;59.142;37.948;2023-10-08T05:27:44;4.22;80.29
79140;HTU21D;68546;59.142;37.948;2023-10-08T05:30:17;4.24;80.20
79140;HTU21D;68546;59.142;37.948;2023-10-08T05:33:03;4.26;79.88
79140;HTU21D;68546;59.142;37.948;2023-10-08T05:35:30;4.26;79.93
79140;HTU21D;68546;59.142;37.948;2023-10-08T05:38:04;4.26;80.08
79140;HTU21D;68546;59.142;37.948;2023-10-08T05:40:45;4.30;80.32
79140;HTU21D;68546;59.142;37.948;2023-10-08T05:43:37;4.32;80.37
79140;HTU21D;68546;59.142;37.948;2023-10-08T05:46:10;4.33;80.49
79140;HTU21D;68546;59.142;37.948;2023-10-08T05:48:50;4.37;80.62
79140;HTU21D;68546;59.142;37.948;2023-10-08T05:51:33;4.39;80.34
79140;HTU21D;68546;59.142;37.948;2023-10-08T05:54:18;4.42;80.32
79140;HTU21D;68546;59.142;37.948;2023-10-08T05:57:11;4.43;80.21
79140;HTU21D;68546;59.142;37.948;2023-10-08T05:59:51;4.44;80.24
79140;HTU21D;68546;59.142;37.948;2023-10-08T06:02:25;4.49;80.55
79140;HTU21D;68546;59.142;37.948;2023-10-08T06:04:57;4.53;80.72
79140;HTU21D;68546;59.142;37.948;2023-10-08T06:07:43;4.57;80.75
79140;HTU21D;68546;59.142;37.948;2023-10-08T06:10:29;4.62;80.79
79140;HTU21D;68546;59.142;37.948;2023-10-08T06:12:58;4.66;81.03
79140;HTU21D;68546;59.142;37.948;2023-10-08T06:15:43;4.73;81.12
79140;HTU21D;68546;59.142;37.948;2023-10-08T06:18:12;4.76;81.04
79140;HTU21D;68546;59.142;37.948;2023-10-08T06:20:43;4.80;80.80
79140;HTU21D;68546;59.142;37.948;2023-10-08T06:23:16;4.84;80.61
79140;HTU21D;68546;59.142;37.948;2023-10-08T06:25:45;4.87;80.37
79140;HTU21D;68546;59.142;37.948;2023-10-08T06:28:16;4.89;80.52
79140;HTU21D;68546;59.142;37.948;2023-10-08T06:30:50;4.92;80.30
79140;HTU21D;68546;59.142;37.948;2023-10-08T06:33:23;4.94;79.98
79140;HTU21D;68546;59.142;37.948;2023-10-08T06:36:07;4.96;80.17
79140;HTU21D;68546;59.142;37.948;2023-10-08T06:38:37;4.97;79.88
79140;HTU21D;68546;59.142;37.948;2023-10-08T06:41:05;4.98;79.75
79140;HTU21D;68546;59.142;37.948;2023-10-08T06:43:36;5.01;79.92
79140;HTU21D;68546;59.142;37.948;2023-10-08T06:46:06;5.03;79.63
79140;HTU21D;68546;59.142;37.948;2023-10-08T06:48:39;5.03;79.38
79140;HTU21D;68546;59.142;37.948;2023-10-08T06:51:09;5.02;79.46
79140;HTU21D;68546;59.142;37.948;2023-10-08T06:53:45;5.04;79.48
79140;HTU21D;68546;59.142;37.948;2023-10-08T06:56:13;5.04;79.66
79140;HTU21D;68546;59.142;37.948;2023-10-08T06:58:44;5.06;79.67
79140;HTU21D;68546;59.142;37.948;2023-10-08T07:01:15;5.08;79.45
79140;HTU21D;68546;59.142;37.948;2023-10-08T07:03:48;5.09;79.57
79140;HTU21D;68546;59.142;37.948;2023-10-08T07:06:18;5.12;79.62
79140;HTU21D;68546;59.142;37.948;2023-10-08T07:08:58;5.13;79.69
79140;HTU21D;68546;59.142;37.948;2023-10-08T07:11:26;5.19;79.74
79140;HTU21D;68546;59.142;37.948;2023-10-08T07:13:55;5.20;79.82
79140;HTU21D;68546;59.142;37.948;2023-10-08T07:16:23;5.24;79.61
79140;HTU21D;68546;59.142;37.948;2023-10-08T07:18:49;5.24;79.63
79140;HTU21D;68546;59.142;37.948;2023-10-08T07:21:19;5.27;79.47
79140;HTU21D;68546;59.142;37.948;2023-10-08T07:23:57;5.27;79.33
79140;HTU21D;68546;59.142;37.948;2023-10-08T07:26:26;5.32;79.65
79140;HTU21D;68546;59.142;37.948;2023-10-08T07:29:03;5.35;79.70
79140;HTU21D;68546;59.142;37.948;2023-10-08T07:31:36;5.38;79.95
79140;HTU21D;68546;59.142;37.948;2023-10-08T07:34:03;5.42;80.26
79140;HTU21D;68546;59.142;37.948;2023-10-08T07:36:54;5.47;80.13
79140;HTU21D;68546;59.142;37.948;2023-10-08T07:39:22;5.52;80.09
79140;HTU21D;68546;59.142;37.948;2023-10-08T07:42:03;5.54;79.85
79140;HTU21D;68546;59.142;37.948;2023-10-08T07:44:31;5.57;79.67
79140;HTU21D;68546;59.142;37.948;2023-10-08T07:46:58;5.61;79.47
79140;HTU21D;68546;59.142;37.948;2023-10-08T07:49:24;5.62;79.20
79140;HTU21D;68546;59.142;37.948;2023-10-08T07:51:59;5.65;79.18
79140;HTU21D;68546;59.142;37.948;2023-10-08T07:54:26;5.67;79.17
79140;HTU21D;68546;59.142;37.948;2023-10-08T07:56:57;5.69;79.01
79140;HTU21D;68546;59.142;37.948;2023-10-08T07:59:36;5.72;78.85
79140;HTU21D;68546;59.142;37.948;2023-10-08T08:02:17;5.76;78.88
79140;HTU21D;68546;59.142;37.948;2023-10-08T08:04:50;5.78;78.75
79140;HTU21D;68546;59.142;37.948;2023-10-08T08:07:17;5.78;77.92
79140;HTU21D;68546;59.142;37.948;2023-10-08T08:09:50;5.79;77.87
79140;HTU21D;68546;59.142;37.948;2023-10-08T08:12:20;5.80;78.24
79140;HTU21D;68546;59.142;37.948;2023-10-08T08:14:47;5.83;78.31
79140;HTU21D;68546;59.142;37.948;2023-10-08T08:17:14;5.83;77.82
79140;HTU21D;68546;59.142;37.948;2023-10-08T08:19:45;5.86;77.80
79140;HTU21D;68546;59.142;37.948;2023-10-08T08:22:19;5.89;78.05
79140;HTU21D;68546;59.142;37.948;2023-10-08T08:24:53;5.92;77.98
79140;HTU21D;68546;59.142;37.948;2023-10-08T08:27:22;5.94;77.90
79140;HTU21D;68546;59.142;37.948;2023-10-08T08:29:53;5.95;78.18
79140;HTU21D;68546;59.142;37.948;2023-10-08T08:32:22;5.99;77.80
79140;HTU21D;68546;59.142;37.948;2023-10-08T08:34:49;6.00;77.96
79140;HTU21D;68546;59.142;37.948;2023-10-08T08:37:16;6.04;78.01
79140;HTU21D;68546;59.142;37.948;2023-10-08T08:39:43;6.04;77.74
79140;HTU21D;68546;59.142;37.948;2023-10-08T08:42:09;6.02;77.46
79140;HTU21D;68546;59.142;37.948;2023-10-08T08:44:38;6.04;77.67
79140;HTU21D;68546;59.142;37.948;2023-10-08T08:47:11;6.07;77.89
79140;HTU21D;68546;59.142;37.948;2023-10-08T08:49:44;6.10;78.24
79140;HTU21D;68546;59.142;37.948;2023-10-08T08:52:13;6.11;77.98
79140;HTU21D;68546;59.142;37.948;2023-10-08T08:54:41;6.13;77.75
79140;HTU21D;68546;59.142;37.948;2023-10-08T08:57:11;6.14;77.69
79140;HTU21D;68546;59.142;37.948;2023-10-08T08:59:46;6.13;77.97
79140;HTU21D;68546;59.142;37.948;2023-10-08T09:02:16;6.15;78.04
79140;HTU21D;68546;59.142;37.948;2023-10-08T09:04:44;6.16;78.11
79140;HTU21D;68546;59.142;37.948;2023-10-08T09:07:12;6.19;78.08
79140;HTU21D;68546;59.142;37.948;2023-10-08T09:09:38;6.19;77.98
79140;HTU21D;68546;59.142;37.948;2023-10-08T09:12:07;6.21;77.76
79140;HTU21D;68546;59.142;37.948;2023-10-08T09:14:36;6.20;77.51
79140;HTU21D;68546;59.142;37.948;2023-10-08T09:17:04;6.17;77.33
79140;HTU21D;68546;59.142;37.948;2023-10-08T09:19:39;6.14;77.31
79140;HTU21D;68546;59.142;37.948;2023-10-08T09:22:08;6.12;77.31
79140;HTU21D;68546;59.142;37.948;2023-10-08T09:24:40;6.11;77.33
79140;HTU21D;68546;59.142;37.948;2023-10-08T09:27:10;6.08;77.49
79140;HTU21D;68546;59.142;37.948;2023-10-08T09:29:40;6.07;77.79
79140;HTU21D;68546;59.142;37.948;2023-10-08T09:32:13;6.07;77.73
79140;HTU21D;68546;59.142;37.948;2023-10-08T09:34:39;6.04;77.60
79140;HTU21D;68546;59.142;37.948;2023-10-08T09:37:06;6.01;77.53
79140;HTU21D;68546;59.142;37.948;2023-10-08T09:39:34;6.00;77.62
79140;HTU21D;68546;59.142;37.948;2023-10-08T09:42:04;5.97;77.79
79140;HTU21D;68546;59.142;37.948;2023-10-08T09:44:32;5.95;77.66
79140;HTU21D;68546;59.142;37.948;2023-10-08T09:47:08;5.95;77.69
79140;HTU21D;68546;59.142;37.948;2023-10-08T09:49:40;5.89;77.65
79140;HTU21D;68546;59.142;37.948;2023-10-08T09:52:10;5.86;77.70
79140;HTU21D;68546;59.142;37.948;2023-10-08T09:55:00;5.85;78.08
79140;HTU21D;68546;59.142;37.948;2023-10-08T09:57:31;5.83;78.13
79140;HTU21D;68546;59.142;37.948;2023-10-08T09:59:59;5.81;78.17
79140;HTU21D;68546;59.142;37.948;2023-10-08T10:02:26;5.84;78.66
79140;HTU21D;68546;59.142;37.948;2023-10-08T10:04:55;5.84;79.06
79140;HTU21D;68546;59.142;37.948;2023-10-08T10:07:21;5.87;79.49
79140;HTU21D;68546;59.142;37.948;2023-10-08T10:09:51;5.92;79.62
79140;HTU21D;68546;59.142;37.948;2023-10-08T10:12:25;5.95;79.77
79140;HTU21D;68546;59.142;37.948;2023-10-08T10:14:53;5.97;79.78
79140;HTU21D;68546;59.142;37.948;2023-10-08T10:17:27;6.00;79.84
79140;HTU21D;68546;59.142;37.948;2023-10-08T10:20:00;6.02;79.87
79140;HTU21D;68546;59.142;37.948;2023-10-08T10:22:30;6.04;79.79
79140;HTU21D;68546;59.142;37.948;2023-10-08T10:24:57;6.06;79.68
79140;HTU21D;68546;59.142;37.948;2023-10-08T10:27:24;6.06;79.64
79140;HTU21D;68546;59.142;37.948;2023-10-08T10:29:51;6.06;79.50
79140;HTU21D;68546;59.142;37.948;2023-10-08T10:32:18;6.06;79.53
79140;HTU21D;68546;59.142;37.948;2023-10-08T10:34:45;6.06;79.71
79140;HTU21D;68546;59.142;37.948;2023-10-08T10:37:19;6.07;79.70
79140;HTU21D;68546;59.142;37.948;2023-10-08T10:39:56;6.07;79.87
79140;HTU21D;68546;59.142;37.948;2023-10-08T10:42:25;6.08;79.91
79140;HTU21D;68546;59.142;37.948;2023-10-08T10:44:54;6.09;79.98
79140;HTU21D;68546;59.142;37.948;2023-10-08T10:47:22;6.10;80.11
79140;HTU21D;68546;59.142;37.948;2023-10-08T10:49:53;6.11;80.04
79140;HTU21D;68546;59.142;37.948;2023-10-08T10:52:36;6.11;79.86
79140;HTU21D;68546;59.142;37.948;2023-10-08T10:55:08;6.12;80.11
79140;HTU21D;68546;59.142;37.948;2023-10-08T10:57:58;6.13;80.11
79140;HTU21D;68546;59.142;37.948;2023-10-08T11:00:51;6.14;80.09
79140;HTU21D;68546;59.142;37.948;2023-10-08T11:03:25;6.15;80.30
79140;HTU21D;68546;59.142;37.948;2023-10-08T11:05:58;6.17;80.71
79140;HTU21D;68546;59.142;37.948;2023-10-08T11:08:26;6.20;80.76
79140;HTU21D;68546;59.142;37.948;2023-10-08T11:11:00;6.23;80.79
79140;HTU21D;68546;59.142;37.948;2023-10-08T11:13:34;6.26;80.42
79140;HTU21D;68546;59.142;37.948;2023-10-08T11:16:07;6.27;80.49
79140;HTU21D;68546;59.142;37.948;2023-10-08T11:18:40;6.28;80.70
79140;HTU21D;68546;59.142;37.948;2023-10-08T11:21:10;6.30;80.62
79140;HTU21D;68546;59.142;37.948;2023-10-08T11:23:51;6.34;80.59
79140;HTU21D;68546;59.142;37.948;2023-10-08T11:26:38;6.35;80.57
79140;HTU21D;68546;59.142;37.948;2023-10-08T11:29:20;6.38;80.81
79140;HTU21D;68546;59.142;37.948;2023-10-08T11:31:53;6.42;81.09
79140;HTU21D;68546;59.142;37.948;2023-10-08T11:34:19;6.45;81.20
79140;HTU21D;68546;59.142;37.948;2023-10-08T11:36:53;6.49;80.72
79140;HTU21D;68546;59.142;37.948;2023-10-08T11:39:19;6.49;80.68
79140;HTU21D;68546;59.142;37.948;2023-10-08T11:42:02;6.51;80.63
79140;HTU21D;68546;59.142;37.948;2023-10-08T11:44:48;6.51;80.43
79140;HTU21D;68546;59.142;37.948;2023-10-08T11:47:18;6.50;80.43
79140;HTU21D;68546;59.142;37.948;2023-10-08T11:49:47;6.49;80.56
79140;HTU21D;68546;59.142;37.948;2023-10-08T11:52:17;6.50;80.51
79140;HTU21D;68546;59.142;37.948;2023-10-08T11:54:47;6.49;80.39
79140;HTU21D;68546;59.142;37.948;2023-10-08T11:57:15;6.48;80.38
79140;HTU21D;68546;59.142;37.948;2023-10-08T11:59:48;6.48;80.34
79140;HTU21D;68546;59.142;37.948;2023-10-08T12:02:14;6.48;80.14
79140;HTU21D;68546;59.142;37.948;2023-10-08T12:04:43;6.45;80.11
79140;HTU21D;68546;59.142;37.948;2023-10-08T12:07:11;6.45;80.35
79140;HTU21D;68546;59.142;37.948;2023-10-08T12:09:39;6.42;80.43
79140;HTU21D;68546;59.142;37.948;2023-10-08T12:12:07;6.43;80.68
79140;HTU21D;68546;59.142;37.948;2023-10-08T12:14:38;6.44;80.98
79140;HTU21D;68546;59.142;37.948;2023-10-08T12:17:04;6.45;81.24
79140;HTU21D;68546;59.142;37.948;2023-10-08T12:19:37;6.46;81.33
79140;HTU21D;68546;59.142;37.948;2023-10-08T12:22:06;6.48;81.26
79140;HTU21D;68546;59.142;37.948;2023-10-08T12:24:34;6.49;81.28
79140;HTU21D;68546;59.142;37.948;2023-10-08T12:27:01;6.51;81.46
79140;HTU21D;68546;59.142;37.948;2023-10-08T12:29:29;6.52;81.58
79140;HTU21D;68546;59.142;37.948;2023-10-08T12:31:58;6.54;81.69
79140;HTU21D;68546;59.142;37.948;2023-10-08T12:34:25;6.55;81.84
79140;HTU21D;68546;59.142;37.948;2023-10-08T12:36:55;6.58;81.81
79140;HTU21D;68546;59.142;37.948;2023-10-08T12:39:21;6.60;81.49
79140;HTU21D;68546;59.142;37.948;2023-10-08T12:41:54;6.60;81.57
79140;HTU21D;68546;59.142;37.948;2023-10-08T12:44:20;6.60;81.47
79140;HTU21D;68546;59.142;37.948;2023-10-08T12:46:47;6.61;81.54
79140;HTU21D;68546;59.142;37.948;2023-10-08T12:49:14;6.61;81.65
79140;HTU21D;68546;59.142;37.948;2023-10-08T12:51:42;6.65;81.72
79140;HTU21D;68546;59.142;37.948;2023-10-08T12:54:11;6.65;81.69
79140;HTU21D;68546;59.142;37.948;2023-10-08T12:56:39;6.66;81.65
79140;HTU21D;68546;59.142;37.948;2023-10-08T12:59:11;6.66;81.65
79140;HTU21D;68546;59.142;37.948;2023-10-08T13:01:47;6.65;81.42
79140;HTU21D;68546;59.142;37.948;2023-10-08T13:04:23;6.64;81.32
79140;HTU21D;68546;59.142;37.948;2023-10-08T13:06:57;6.63;81.27
79140;HTU21D;68546;59.142;37.948;2023-10-08T13:09:26;6.60;81.18
79140;HTU21D;68546;59.142;37.948;2023-10-08T13:11:53;6.58;81.20
79140;HTU21D;68546;59.142;37.948;2023-10-08T13:14:19;6.57;81.20
79140;HTU21D;68546;59.142;37.948;2023-10-08T13:16:49;6.55;81.38
79140;HTU21D;68546;59.142;37.948;2023-10-08T13:19:21;6.54;81.36
79140;HTU21D;68546;59.142;37.948;2023-10-08T13:21:49;6.52;81.52
79140;HTU21D;68546;59.142;37.948;2023-10-08T13:24:19;6.51;81.49
79140;HTU21D;68546;59.142;37.948;2023-10-08T13:26:45;6.50;81.45
79140;HTU21D;68546;59.142;37.948;2023-10-08T13:29:14;6.49;81.39
79140;HTU21D;68546;59.142;37.948;2023-10-08T13:31:41;6.48;81.45
79140;HTU21D;68546;59.142;37.948;2023-10-08T13:34:07;6.44;81.47
79140;HTU21D;68546;59.142;37.948;2023-10-08T13:36:38;6.44;81.51
79140;HTU21D;68546;59.142;37.948;2023-10-08T13:39:06;6.41;81.52
79140;HTU21D;68546;59.142;37.948;2023-10-08T13:41:38;6.41;81.41
79140;HTU21D;68546;59.142;37.948;2023-10-08T13:44:09;6.40;81.37
79140;HTU21D;68546;59.142;37.948;2023-10-08T13:46:38;6.38;81.05
79140;HTU21D;68546;59.142;37.948;2023-10-08T13:49:08;6.35;80.98
79140;HTU21D;68546;59.142;37.948;2023-10-08T13:51:36;6.34;80.90
79140;HTU21D;68546;59.142;37.948;2023-10-08T13:54:04;6.31;81.00
79140;HTU21D;68546;59.142;37.948;2023-10-08T13:56:35;6.27;81.17
79140;HTU21D;68546;59.142;37.948;2023-10-08T13:59:04;6.24;81.29
79140;HTU21D;68546;59.142;37.948;2023-10-08T14:01:39;6.24;81.49
79140;HTU21D;68546;59.142;37.948;2023-10-08T14:04:13;6.22;81.52
79140;HTU21D;68546;59.142;37.948;2023-10-08T14:06:43;6.21;81.55
79140;HTU21D;68546;59.142;37.948;2023-10-08T14:09:21;6.17;81.54
79140;HTU21D;68546;59.142;37.948;2023-10-08T14:11:48;6.16;81.53
79140;HTU21D;68546;59.142;37.948;2023-10-08T14:14:19;6.13;81.68
79140;HTU21D;68546;59.142;37.948;2023-10-08T14:16:46;6.12;81.59
79140;HTU21D;68546;59.142;37.948;2023-10-08T14:19:18;6.10;81.75
79140;HTU21D;68546;59.142;37.948;2023-10-08T14:21:48;6.09;81.94
79140;HTU21D;68546;59.142;37.948;2023-10-08T14:24:29;6.08;81.98
79140;HTU21D;68546;59.142;37.948;2023-10-08T14:27:04;6.05;82.13
79140;HTU21D;68546;59.142;37.948;2023-10-08T14:29:39;6.06;82.25
79140;HTU21D;68546;59.142;37.948;2023-10-08T14:32:13;6.05;82.23
79140;HTU21D;68546;59.142;37.948;2023-10-08T14:34:41;6.02;82.23
79140;HTU21D;68546;59.142;37.948;2023-10-08T14:37:13;6.02;82.33
79140;HTU21D;68546;59.142;37.948;2023-10-08T14:39:58;6.00;82.32
79140;HTU21D;68546;59.142;37.948;2023-10-08T14:42:43;5.99;82.40
79140;HTU21D;68546;59.142;37.948;2023-10-08T14:45:23;5.97;82.55
79140;HTU21D;68546;59.142;37.948;2023-10-08T14:47:55;5.97;82.37
79140;HTU21D;68546;59.142;37.948;2023-10-08T14:50:23;5.96;82.22
79140;HTU21D;68546;59.142;37.948;2023-10-08T14:52:56;5.94;82.33
79140;HTU21D;68546;59.142;37.948;2023-10-08T14:55:23;5.93;82.36
79140;HTU21D;68546;59.142;37.948;2023-10-08T14:57:50;5.92;82.38
79140;HTU21D;68546;59.142;37.948;2023-10-08T15:00:21;5.90;82.20
79140;HTU21D;68546;59.142;37.948;2023-10-08T15:02:53;5.87;82.16
79140;HTU21D;68546;59.142;37.948;2023-10-08T15:05:21;5.86;82.09
79140;HTU21D;68546;59.142;37.948;2023-10-08T15:07:51;5.85;82.07
79140;HTU21D;68546;59.142;37.948;2023-10-08T15:10:18;5.82;82.01
79140;HTU21D;68546;59.142;37.948;2023-10-08T15:12:45;5.80;82.07
79140;HTU21D;68546;59.142;37.948;2023-10-08T15:15:12;5.78;82.22
79140;HTU21D;68546;59.142;37.948;2023-10-08T15:17:42;5.77;82.23
79140;HTU21D;68546;59.142;37.948;2023-10-08T15:20:10;5.75;82.13
79140;HTU21D;68546;59.142;37.948;2023-10-08T15:22:46;5.71;82.06
79140;HTU21D;68546;59.142;37.948;2023-10-08T15:25:14;5.71;82.21
79140;HTU21D;68546;59.142;37.948;2023-10-08T15:27:43;5.69;82.32
79140;HTU21D;68546;59.142;37.948;2023-10-08T15:30:12;5.69;82.42
79140;HTU21D;68546;59.142;37.948;2023-10-08T15:32:39;5.68;82.43
79140;HTU21D;68546;59.142;37.948;2023-10-08T15:35:07;5.68;82.33
79140;HTU21D;68546;59.142;37.948;2023-10-08T15:37:38;5.67;82.43
79140;HTU21D;68546;59.142;37.948;2023-10-08T15:40:05;5.66;82.58
79140;HTU21D;68546;59.142;37.948;2023-10-08T15:42:35;5.65;82.67
79140;HTU21D;68546;59.142;37.948;2023-10-08T15:45:03;5.66;82.39